• Join FlightAware (Why Join?)
  • Login
  • US Flag 
02:26AM EDT


 

Airport Tracker/Info


-or-


 

Live Flight TrackerFlight Track Log ✈ EGF2748 ✈ 05-May-2012 ✈ KDFW - KGSP

Flight Track Log - Related Links

Times and Time Zones

All times are in EDT time to prevent confusion due to time zone crossing. See the EGF2748 flight status page for this flight to view local times or setup timezone preferences in your user account.

Time Position Orientation Groundspeed Altitude Reporting Facility
EDT Latitude Longitude Course Direction KTS MPH feet Rate Location/Type
11:02AM 32.8346 -97.0289 359° North  Level FlightAware Approximate
11:02AM 32.8642 -97.0294 105° East 164 189 1,700  Level FAA TRACON SMA TRACON (SMA)
11:07AM 32.7994 -96.7383 78° East 297 342 10,400 1,920 Climbing FAA TRACON SMA TRACON (SMA)
11:07AM 32.8114 -96.6692 79° East 309 356 11,500 1,560 Climbing FAA TRACON SMA TRACON (SMA)
11:08AM 32.8222 -96.6053 79° East 321 369 12,500 1,560 Climbing FAA TRACON SMA TRACON (SMA)
11:09AM 32.8347 -96.5311 79° East 332 382 13,600 1,620 Climbing FAA TRACON SMA TRACON (SMA)
11:09AM 32.8475 -96.4542 78° East 342 394 14,700 1,500 Climbing FAA TRACON SMA TRACON (SMA)
11:10AM 32.8594 -96.3844 81° East 349 402 15,600 1,500 Climbing FAA TRACON SMA TRACON (SMA)
11:11AM 32.8703 -96.3039 89° East 358 412 16,700 1,620 Climbing FAA TRACON SMA TRACON (SMA)
11:11AM 32.8719 -96.2211 88° East 363 418 17,800 1,620 Climbing FAA TRACON SMA TRACON (SMA)
11:12AM 32.8744 -96.1467 89° East 367 422 18,900 1,500 Climbing FAA TRACON SMA TRACON (SMA)
11:13AM 32.8761 -96.0619 88° East 372 428 19,900 1,500 Climbing FAA TRACON SMA TRACON (SMA)
11:13AM 32.8781 -95.9856 88° East 375 432 20,900 1,560 Climbing FAA TRACON SMA TRACON (SMA)
11:14AM 32.8803 -95.9000 96° East 376 433 22,000 1,680 Climbing FAA TRACON SMA TRACON (SMA)
11:15AM 32.8736 -95.8303 87° East 368 423 23,000 1,440 Climbing Fort Worth Center
11:16AM 32.8783 -95.7189 90° East 368 423 24,300 1,260 Climbing Fort Worth Center
11:17AM 32.8786 -95.5928 89° East 374 430 25,600 1,200 Climbing Fort Worth Center
11:18AM 32.8808 -95.4617 86° East 385 443 26,700 1,080 Climbing Fort Worth Center
11:19AM 32.8892 -95.3278 83° East 396 456 27,800 1,020 Climbing Fort Worth Center
11:20AM 32.9017 -95.1989 78° East 396 456 28,800 1,020 Climbing Fort Worth Center
11:21AM 32.9244 -95.0722 80° East 396 456 29,900 1,020 Climbing Fort Worth Center
11:22AM 32.9447 -94.9381 80° East 396 456 30,900 1,020 Climbing Fort Worth Center
11:23AM 32.9650 -94.8011 80° East 406 467 32,000 1,080 Climbing Fort Worth Center
11:24AM 32.9850 -94.6619 79° East 412 474 33,100 1,080 Climbing Fort Worth Center
11:25AM 33.0069 -94.5225 81° East 417 480 34,200 900 Climbing Fort Worth Center
11:26AM 33.0264 -94.3808 80° East 428 493 35,000 360 Climbing Fort Worth Center
11:27AM 33.0481 -94.2364 81° East 434 499 35,000  Level Fort Worth Center
11:28AM 33.0692 -94.0844 81° East 446 513 35,000  Level Fort Worth Center
11:29AM 33.0897 -93.9250 80° East 465 535 35,000  Level Fort Worth Center
11:30AM 33.1161 -93.7528 80° East 475 547 35,000  Level Fort Worth Center
11:31AM 33.1386 -93.5981 80° East 469 540 35,000  Level Fort Worth Center
11:32AM 33.1611 -93.4456 80° East 469 540 35,000  Level Fort Worth Center
11:33AM 33.1833 -93.2883 81° East 469 540 35,000  Level Fort Worth Center
11:34AM 33.2050 -93.1308 81° East 469 540 35,000  Level Fort Worth Center
11:35AM 33.2267 -92.9708 80° East 476 548 35,000  Level Fort Worth Center
11:36AM 33.2503 -92.8133 83° East 476 548 35,000  Level Fort Worth Center
11:37AM 33.2672 -92.6536 83° East 481 554 35,000  Level Fort Worth Center
11:38AM 33.2839 -92.4911 84° East 486 559 35,000  Level Fort Worth Center
11:40AM 33.3103 -92.1619 83° East 501 577 35,000  Level Memphis Center
11:41AM 33.3272 -92.0006 85° East 496 571 35,000  Level Memphis Center
11:42AM 33.3394 -91.8392 85° East 496 571 35,000  Level Memphis Center
11:43AM 33.3519 -91.6753 85° East 496 571 35,000  Level Memphis Center
11:44AM 33.3639 -91.5139 83° East 496 571 35,000  Level Memphis Center
11:45AM 33.3797 -91.3522 85° East 491 565 35,000  Level Memphis Center
11:46AM 33.3914 -91.1958 84° East 486 559 35,000  Level Memphis Center
11:47AM 33.4050 -91.0367 85° East 480 552 35,000  Level Memphis Center
11:48AM 33.4161 -90.8775 83° East 475 547 35,000  Level Memphis Center
11:49AM 33.4314 -90.7206 85° East 475 547 35,000  Level Memphis Center
11:50AM 33.4419 -90.5639 84° East 475 547 35,000  Level Memphis Center
11:51AM 33.4547 -90.4069 86° East 480 552 35,000  Level Memphis Center
11:52AM 33.4650 -90.2478 89° East 480 552 35,000  Level Memphis Center
11:53AM 33.4669 -90.0883 88° East 480 552 35,000  Level Memphis Center
11:54AM 33.4706 -89.9314 89° East 475 547 35,000  Level Memphis Center
11:55AM 33.4722 -89.7744 89° East 475 547 35,000  Level Memphis Center
11:56AM 33.4756 -89.6150 89° East 475 547 35,000  Level Memphis Center
11:57AM 33.4786 -89.4556 90° East 475 547 35,000  Level Memphis Center
11:58AM 33.4794 -89.3011 89° East 475 547 35,000  Level Memphis Center
11:59AM 33.4822 -89.1417 90° East 475 547 35,000  Level Memphis Center
12:00PM 33.4825 -88.9875 90° East 475 547 35,000  Level Memphis Center
12:01PM 33.4828 -88.8306 89° East 475 547 35,000  Level Memphis Center
12:02PM 33.4850 -88.6736 90° East 475 547 35,000  Level Memphis Center
12:03PM 33.4850 -88.5192 82° East 475 547 35,000  Level Memphis Center
12:04PM 33.5033 -88.3667 82° East 470 541 35,000  Level Memphis Center
12:05PM 33.5217 -88.2117 83° East 465 535 35,000  Level Memphis Center
12:06PM 33.5378 -88.0594 82° East 460 529 35,000  Level Memphis Center
12:08PM 33.5786 -87.7142 83° East 459 528 35,000  Level Atlanta Center
12:09PM 33.5936 -87.5625 82° East 459 528 35,000  Level Atlanta Center
12:10PM 33.6125 -87.4086 83° East 459 528 35,000  Level Atlanta Center
12:11PM 33.6269 -87.2594 82° East 459 528 35,000  Level Atlanta Center
12:12PM 33.6453 -87.1081 82° East 459 528 35,000  Level Atlanta Center
12:13PM 33.6636 -86.9564 88° East 459 528 35,000  Level Atlanta Center
12:14PM 33.6672 -86.8069 90° East 459 528 35,000  Level Atlanta Center
12:15PM 33.6664 -86.6544 90° East 459 528 35,000  Level Atlanta Center
12:16PM 33.6667 -86.5322 90° East 459 528 35,000  Level Atlanta Center
12:17PM 33.6658 -86.3650 92° East 459 528 35,000  Level Atlanta Center
12:18PM 33.6622 -86.2178 90° East 453 521 35,000  Level Atlanta Center
12:19PM 33.6625 -86.0781 92° East 436 502 35,000  Level Atlanta Center
12:20PM 33.6586 -85.9406 91° East 421 484 35,000  Level Atlanta Center
12:21PM 33.6567 -85.7883 90° East 421 484 35,000  Level Atlanta Center
12:22PM 33.6561 -85.6661 91° East 410 472 35,000  Level Atlanta Center
12:23PM 33.6539 -85.5086 91° East 416 479 35,000  Level Atlanta Center
12:24PM 33.6514 -85.3714 92° East 421 484 35,000  Level Atlanta Center
12:25PM 33.6467 -85.2292 91° East 421 484 35,000  Level Atlanta Center
12:26PM 33.6436 -85.0844 91° East 421 484 35,000 -180 Level Atlanta Center
12:27PM 33.6406 -84.9444 92° East 421 484 34,700 -840 Descending Atlanta Center
12:28PM 33.6375 -84.8122 92° East 421 484 33,400 -1,800 Descending Atlanta Center
12:29PM 33.6339 -84.6700 91° East 427 491 31,100 -1,200 Descending Atlanta Center
12:30PM 33.6306 -84.5203 82° East 435 501 31,000 -60 Descending Atlanta Center
12:31PM 33.6478 -84.3708 72° East 441 507 31,000 -60 Level Atlanta Center
12:32PM 33.6878 -84.2236 70° East 447 514 30,900 -600 Descending Atlanta Center
12:33PM 33.7358 -84.0639 71° East 460 529 29,900 -1,020 Descending Atlanta Center
12:34PM 33.7775 -83.9189 70° East 460 529 28,900 -960 Descending Atlanta Center
12:35PM 33.8211 -83.7736 70° East 460 529 28,000 -900 Descending Atlanta Center
12:36PM 33.8644 -83.6286 72° East 465 535 27,100 -960 Descending Atlanta Center
12:37PM 33.9056 -83.4781 69° East 465 535 26,100 -1,140 Descending Atlanta Center
12:38PM 33.9528 -83.3300 47° Northeast 465 535 24,900 -1,860 Descending Atlanta Center
12:39PM 34.0275 -83.2317 43° Northeast 453 521 22,400 -2,820 Descending Atlanta Center
12:41PM 34.1950 -83.0442 42° Northeast 407 468 16,600 -2,940 Descending Atlanta Center
12:42PM 34.2758 -82.9553 44° Northeast 396 456 13,700 -2,700 Descending Atlanta Center
12:43PM 34.3542 -82.8636 46° Northeast 377 434 11,200 -1,320 Descending Atlanta Center
12:44PM 34.4242 -82.7747 46° Northeast 370 426 11,100 -180 Descending Atlanta Center
12:45PM 34.4983 -82.6803 52° Northeast 370 426 10,900 -600 Descending Atlanta Center
12:46PM 34.5539 -82.5936 61° Northeast 358 412 9,900 -1,200 Descending Atlanta Center
12:47PM 34.5925 -82.5072 68° East 317 365 8,500 -1,620 Descending Atlanta Center
12:48PM 34.6225 -82.4183 28° Northeast 281 323 6,700 -1,800 Descending Atlanta Center
12:49PM 34.6867 -82.3767 28° Northeast 255 293 4,900 -1,800 Descending Atlanta Center